createdAt,value
2023-05-13T00:05:54.446Z,1017.97
2023-05-13T00:20:54.125Z,1017.97
2023-05-13T00:35:54.306Z,1018.03
2023-05-13T00:50:54.573Z,1018.01
2023-05-13T01:05:54.753Z,1018.10
2023-05-13T01:20:54.871Z,1018.21
2023-05-13T01:35:55.024Z,1018.30
2023-05-13T01:50:55.193Z,1018.47
2023-05-13T02:05:55.438Z,1018.41
2023-05-13T02:20:55.586Z,1018.47
2023-05-13T02:35:55.812Z,1018.43
2023-05-13T02:50:56.662Z,1018.52
2023-05-13T03:05:56.839Z,1018.65
2023-05-13T03:20:57.075Z,1018.62
2023-05-13T03:35:57.316Z,1018.77
2023-05-13T03:50:57.702Z,1018.84
2023-05-13T04:05:57.785Z,1018.90
2023-05-13T04:20:58.238Z,1019.07
2023-05-13T04:35:58.891Z,1019.27
2023-05-13T04:50:59.020Z,1019.33
2023-05-13T05:05:59.986Z,1019.49
2023-05-13T05:21:01.788Z,1019.62
2023-05-13T05:36:02.192Z,1019.73
2023-05-13T05:51:02.305Z,1019.91
2023-05-13T06:06:02.437Z,1019.80
2023-05-13T06:21:03.053Z,1019.80
2023-05-13T06:36:03.574Z,1019.84
2023-05-13T06:51:04.201Z,1019.95
2023-05-13T07:06:04.264Z,1019.91
2023-05-13T07:21:04.435Z,1019.93
2023-05-13T07:36:04.396Z,1019.72
2023-05-13T07:51:05.427Z,1019.65
2023-05-13T08:06:05.449Z,1019.56
2023-05-13T08:21:05.535Z,1019.57
2023-05-13T08:36:05.618Z,1019.53
2023-05-13T08:51:06.302Z,1019.42
2023-05-13T09:06:06.462Z,1019.38
2023-05-13T09:21:07.892Z,1019.40
2023-05-13T09:36:08.401Z,1019.33
2023-05-13T09:51:08.551Z,1019.31
2023-05-13T10:06:08.886Z,1019.20
2023-05-13T10:21:08.649Z,1019.20
2023-05-13T10:36:08.916Z,1019.19
2023-05-13T10:51:09.010Z,1019.17
2023-05-13T11:06:08.991Z,1019.25
2023-05-13T11:21:09.104Z,1019.02
2023-05-13T11:36:09.101Z,1018.91
2023-05-13T11:51:09.226Z,1018.87
2023-05-13T12:06:10.225Z,1018.89
2023-05-13T12:21:10.342Z,1018.65
2023-05-13T12:36:10.355Z,1018.72
2023-05-13T12:51:10.924Z,1018.64
2023-05-13T13:06:11.632Z,1018.67
2023-05-13T13:21:11.715Z,1018.52
2023-05-13T13:36:11.662Z,1018.39
2023-05-13T13:51:12.337Z,1018.58
2023-05-13T14:06:12.482Z,1018.35
2023-05-13T14:21:12.533Z,1018.22
2023-05-13T14:36:12.615Z,1018.19
2023-05-13T14:51:12.730Z,1018.21
2023-05-13T15:06:12.816Z,1018.13
2023-05-13T15:21:12.865Z,1018.12
2023-05-13T15:36:13.057Z,1018.09
2023-05-13T15:51:13.077Z,1017.93
2023-05-13T16:06:13.254Z,1017.87
2023-05-13T16:21:13.415Z,1017.74
2023-05-13T16:36:13.579Z,1017.84
2023-05-13T16:51:13.838Z,1017.97
2023-05-13T17:06:16.096Z,1018.07
2023-05-13T17:21:16.699Z,1018.24
2023-05-13T17:36:16.786Z,1018.36
2023-05-13T17:51:16.887Z,1018.35
2023-05-13T18:06:17.238Z,1018.37
2023-05-13T18:21:17.048Z,1018.43
2023-05-13T18:36:17.724Z,1018.52
2023-05-13T18:51:20.535Z,1018.65
2023-05-13T19:06:20.935Z,1018.79
2023-05-13T19:21:21.040Z,1018.83
2023-05-13T19:36:21.475Z,1018.87
2023-05-13T19:51:22.142Z,1018.92
2023-05-13T20:06:22.218Z,1018.95
2023-05-13T20:21:22.368Z,1018.94
2023-05-13T20:36:22.384Z,1018.91
2023-05-13T20:51:22.471Z,1018.84
2023-05-13T21:06:22.550Z,1018.77
2023-05-13T21:21:22.656Z,1018.85
2023-05-13T21:36:22.763Z,1018.70
2023-05-13T21:51:22.887Z,1018.75
2023-05-13T22:06:22.983Z,1018.74
2023-05-13T22:21:23.033Z,1018.69
2023-05-13T22:36:23.112Z,1018.70
2023-05-13T22:51:23.239Z,1018.65
2023-05-13T23:06:23.827Z,1018.61
2023-05-13T23:21:23.856Z,1018.52
2023-05-13T23:36:23.955Z,1018.51
2023-05-13T23:51:24.077Z,1018.47
